sensor_id;sensor_type;location;lat;lon;timestamp;temperature;humidity
7077;DHT22;3579;48.956;9.154;2023-06-26T00:02:25;30.10;42.90
7077;DHT22;3579;48.956;9.154;2023-06-26T00:04:51;30.10;42.40
7077;DHT22;3579;48.956;9.154;2023-06-26T00:07:20;30.00;42.40
7077;DHT22;3579;48.956;9.154;2023-06-26T00:09:46;30.00;42.40
7077;DHT22;3579;48.956;9.154;2023-06-26T00:12:12;30.00;42.50
7077;DHT22;3579;48.956;9.154;2023-06-26T00:14:38;30.00;42.50
7077;DHT22;3579;48.956;9.154;2023-06-26T00:17:04;30.00;42.50
7077;DHT22;3579;48.956;9.154;2023-06-26T00:19:30;29.90;42.50
7077;DHT22;3579;48.956;9.154;2023-06-26T00:21:56;29.90;42.50
7077;DHT22;3579;48.956;9.154;2023-06-26T00:24:22;29.90;42.50
7077;DHT22;3579;48.956;9.154;2023-06-26T00:26:48;29.80;42.60
7077;DHT22;3579;48.956;9.154;2023-06-26T00:29:14;29.90;43.20
7077;DHT22;3579;48.956;9.154;2023-06-26T00:31:40;29.80;42.60
7077;DHT22;3579;48.956;9.154;2023-06-26T00:34:06;29.80;42.60
7077;DHT22;3579;48.956;9.154;2023-06-26T00:36:32;29.80;42.60
7077;DHT22;3579;48.956;9.154;2023-06-26T00:38:59;29.80;42.70
7077;DHT22;3579;48.956;9.154;2023-06-26T00:41:25;29.80;42.70
7077;DHT22;3579;48.956;9.154;2023-06-26T00:43:51;29.80;42.70
7077;DHT22;3579;48.956;9.154;2023-06-26T00:46:17;29.80;42.80
7077;DHT22;3579;48.956;9.154;2023-06-26T00:48:45;29.80;42.80
7077;DHT22;3579;48.956;9.154;2023-06-26T00:51:11;29.80;42.80
7077;DHT22;3579;48.956;9.154;2023-06-26T00:53:37;29.70;42.80
7077;DHT22;3579;48.956;9.154;2023-06-26T00:56:05;29.70;42.80
7077;DHT22;3579;48.956;9.154;2023-06-26T00:58:31;29.70;42.80
7077;DHT22;3579;48.956;9.154;2023-06-26T01:00:57;29.70;42.80
7077;DHT22;3579;48.956;9.154;2023-06-26T01:03:25;29.70;42.80
7077;DHT22;3579;48.956;9.154;2023-06-26T01:05:56;29.70;42.80
7077;DHT22;3579;48.956;9.154;2023-06-26T01:08:23;29.70;42.80
7077;DHT22;3579;48.956;9.154;2023-06-26T01:10:49;29.60;42.90
7077;DHT22;3579;48.956;9.154;2023-06-26T01:13:16;29.60;42.90
7077;DHT22;3579;48.956;9.154;2023-06-26T01:15:42;29.60;42.90
7077;DHT22;3579;48.956;9.154;2023-06-26T01:18:08;29.60;42.90
7077;DHT22;3579;48.956;9.154;2023-06-26T01:20:36;29.60;42.90
7077;DHT22;3579;48.956;9.154;2023-06-26T01:23:20;29.60;43.00
7077;DHT22;3579;48.956;9.154;2023-06-26T01:28:17;29.50;43.00
7077;DHT22;3579;48.956;9.154;2023-06-26T01:30:45;29.50;43.00
7077;DHT22;3579;48.956;9.154;2023-06-26T01:33:13;29.50;43.00
7077;DHT22;3579;48.956;9.154;2023-06-26T01:35:40;29.50;43.00
7077;DHT22;3579;48.956;9.154;2023-06-26T01:38:13;29.50;43.00
7077;DHT22;3579;48.956;9.154;2023-06-26T01:40:39;29.50;43.00
7077;DHT22;3579;48.956;9.154;2023-06-26T01:43:08;29.50;43.10
7077;DHT22;3579;48.956;9.154;2023-06-26T01:45:37;29.50;43.10
7077;DHT22;3579;48.956;9.154;2023-06-26T01:48:04;29.50;43.10
7077;DHT22;3579;48.956;9.154;2023-06-26T01:50:33;29.40;43.00
7077;DHT22;3579;48.956;9.154;2023-06-26T01:53:15;29.40;43.10
7077;DHT22;3579;48.956;9.154;2023-06-26T01:55:46;29.40;43.60
7077;DHT22;3579;48.956;9.154;2023-06-26T01:58:14;29.40;43.10
7077;DHT22;3579;48.956;9.154;2023-06-26T02:00:41;29.40;43.10
7077;DHT22;3579;48.956;9.154;2023-06-26T02:03:07;29.40;43.20
7077;DHT22;3579;48.956;9.154;2023-06-26T02:05:33;29.30;43.10
7077;DHT22;3579;48.956;9.154;2023-06-26T02:07:59;29.30;43.10
7077;DHT22;3579;48.956;9.154;2023-06-26T02:10:27;29.30;43.20
7077;DHT22;3579;48.956;9.154;2023-06-26T02:12:53;29.30;43.20
7077;DHT22;3579;48.956;9.154;2023-06-26T02:15:19;29.30;43.20
7077;DHT22;3579;48.956;9.154;2023-06-26T02:17:44;29.30;43.20
7077;DHT22;3579;48.956;9.154;2023-06-26T02:20:14;29.30;43.20
7077;DHT22;3579;48.956;9.154;2023-06-26T02:22:41;29.30;43.20
7077;DHT22;3579;48.956;9.154;2023-06-26T02:25:09;29.30;43.30
7077;DHT22;3579;48.956;9.154;2023-06-26T02:27:35;29.20;43.20
7077;DHT22;3579;48.956;9.154;2023-06-26T02:30:01;29.20;43.20
7077;DHT22;3579;48.956;9.154;2023-06-26T02:32:27;29.20;43.20
7077;DHT22;3579;48.956;9.154;2023-06-26T02:34:53;29.20;43.30
7077;DHT22;3579;48.956;9.154;2023-06-26T02:37:19;29.20;43.40
7077;DHT22;3579;48.956;9.154;2023-06-26T02:39:46;29.10;43.30
7077;DHT22;3579;48.956;9.154;2023-06-26T02:42:12;29.10;43.30
7077;DHT22;3579;48.956;9.154;2023-06-26T02:44:38;29.10;43.30
7077;DHT22;3579;48.956;9.154;2023-06-26T02:47:04;29.10;43.30
7077;DHT22;3579;48.956;9.154;2023-06-26T02:49:30;29.10;43.30
7077;DHT22;3579;48.956;9.154;2023-06-26T02:51:56;29.10;43.40
7077;DHT22;3579;48.956;9.154;2023-06-26T02:54:22;29.10;43.40
7077;DHT22;3579;48.956;9.154;2023-06-26T02:56:48;29.10;43.40
7077;DHT22;3579;48.956;9.154;2023-06-26T02:59:14;29.00;43.40
7077;DHT22;3579;48.956;9.154;2023-06-26T03:01:40;29.00;43.40
7077;DHT22;3579;48.956;9.154;2023-06-26T03:04:06;29.00;43.40
7077;DHT22;3579;48.956;9.154;2023-06-26T03:06:33;29.00;43.40
7077;DHT22;3579;48.956;9.154;2023-06-26T03:08:59;29.00;43.50
7077;DHT22;3579;48.956;9.154;2023-06-26T03:11:25;29.00;43.50
7077;DHT22;3579;48.956;9.154;2023-06-26T03:13:50;29.00;43.50
7077;DHT22;3579;48.956;9.154;2023-06-26T03:16:16;29.00;43.50
7077;DHT22;3579;48.956;9.154;2023-06-26T03:18:42;28.90;43.40
7077;DHT22;3579;48.956;9.154;2023-06-26T03:21:08;28.90;43.40
7077;DHT22;3579;48.956;9.154;2023-06-26T03:23:35;28.90;43.50
7077;DHT22;3579;48.956;9.154;2023-06-26T03:26:01;28.90;43.50
7077;DHT22;3579;48.956;9.154;2023-06-26T03:28:27;28.90;43.50
7077;DHT22;3579;48.956;9.154;2023-06-26T03:30:53;28.90;43.50
7077;DHT22;3579;48.956;9.154;2023-06-26T03:33:19;28.90;43.50
7077;DHT22;3579;48.956;9.154;2023-06-26T03:35:45;28.90;43.50
7077;DHT22;3579;48.956;9.154;2023-06-26T03:38:11;28.90;43.60
7077;DHT22;3579;48.956;9.154;2023-06-26T03:40:37;28.90;43.60
7077;DHT22;3579;48.956;9.154;2023-06-26T03:43:03;28.90;43.60
7077;DHT22;3579;48.956;9.154;2023-06-26T03:45:29;28.90;43.50
7077;DHT22;3579;48.956;9.154;2023-06-26T03:47:55;28.90;43.50
7077;DHT22;3579;48.956;9.154;2023-06-26T03:50:21;29.00;43.50
7077;DHT22;3579;48.956;9.154;2023-06-26T03:52:47;29.00;43.50
7077;DHT22;3579;48.956;9.154;2023-06-26T03:55:13;29.00;43.40
7077;DHT22;3579;48.956;9.154;2023-06-26T03:57:39;29.00;43.40
7077;DHT22;3579;48.956;9.154;2023-06-26T04:00:06;29.10;43.40
7077;DHT22;3579;48.956;9.154;2023-06-26T04:02:34;29.10;43.40
7077;DHT22;3579;48.956;9.154;2023-06-26T04:05:01;29.10;43.30
7077;DHT22;3579;48.956;9.154;2023-06-26T04:07:29;29.10;43.30
7077;DHT22;3579;48.956;9.154;2023-06-26T04:09:55;29.20;43.20
7077;DHT22;3579;48.956;9.154;2023-06-26T04:12:21;29.30;43.20
7077;DHT22;3579;48.956;9.154;2023-06-26T04:14:47;29.30;43.20
7077;DHT22;3579;48.956;9.154;2023-06-26T04:17:13;29.30;43.10
7077;DHT22;3579;48.956;9.154;2023-06-26T04:19:39;29.40;43.10
7077;DHT22;3579;48.956;9.154;2023-06-26T04:22:05;29.40;43.00
7077;DHT22;3579;48.956;9.154;2023-06-26T04:24:31;29.40;42.80
7077;DHT22;3579;48.956;9.154;2023-06-26T04:26:57;29.50;42.70
7077;DHT22;3579;48.956;9.154;2023-06-26T04:29:26;29.50;42.70
7077;DHT22;3579;48.956;9.154;2023-06-26T04:31:53;29.60;42.40
7077;DHT22;3579;48.956;9.154;2023-06-26T04:34:29;29.60;42.00
7077;DHT22;3579;48.956;9.154;2023-06-26T04:37:00;29.70;41.80
7077;DHT22;3579;48.956;9.154;2023-06-26T04:39:30;29.70;41.60
7077;DHT22;3579;48.956;9.154;2023-06-26T04:41:56;29.80;41.50
7077;DHT22;3579;48.956;9.154;2023-06-26T04:44:22;29.80;41.20
7077;DHT22;3579;48.956;9.154;2023-06-26T04:46:48;29.90;41.10
7077;DHT22;3579;48.956;9.154;2023-06-26T04:49:17;30.00;41.00
7077;DHT22;3579;48.956;9.154;2023-06-26T04:51:44;30.00;40.90
7077;DHT22;3579;48.956;9.154;2023-06-26T04:54:11;30.10;40.80
7077;DHT22;3579;48.956;9.154;2023-06-26T04:56:37;30.10;40.60
7077;DHT22;3579;48.956;9.154;2023-06-26T04:59:05;30.20;40.50
7077;DHT22;3579;48.956;9.154;2023-06-26T05:01:31;30.30;40.70
7077;DHT22;3579;48.956;9.154;2023-06-26T05:04:00;30.30;40.40
7077;DHT22;3579;48.956;9.154;2023-06-26T05:06:26;30.30;40.30
7077;DHT22;3579;48.956;9.154;2023-06-26T05:08:52;30.40;40.20
7077;DHT22;3579;48.956;9.154;2023-06-26T05:11:18;30.40;40.10
7077;DHT22;3579;48.956;9.154;2023-06-26T05:13:44;30.50;40.00
7077;DHT22;3579;48.956;9.154;2023-06-26T05:16:10;30.50;39.90
7077;DHT22;3579;48.956;9.154;2023-06-26T05:18:36;30.60;39.80
7077;DHT22;3579;48.956;9.154;2023-06-26T05:21:03;30.60;39.60
7077;DHT22;3579;48.956;9.154;2023-06-26T05:23:33;30.70;39.50
7077;DHT22;3579;48.956;9.154;2023-06-26T05:26:03;30.70;39.50
7077;DHT22;3579;48.956;9.154;2023-06-26T05:28:29;32.10;40.30
7077;DHT22;3579;48.956;9.154;2023-06-26T05:30:58;30.80;39.40
7077;DHT22;3579;48.956;9.154;2023-06-26T05:33:26;30.80;39.30
7077;DHT22;3579;48.956;9.154;2023-06-26T05:35:53;30.90;39.30
7077;DHT22;3579;48.956;9.154;2023-06-26T05:38:20;30.90;39.20
7077;DHT22;3579;48.956;9.154;2023-06-26T05:40:46;31.00;39.20
7077;DHT22;3579;48.956;9.154;2023-06-26T05:43:12;31.00;39.10
7077;DHT22;3579;48.956;9.154;2023-06-26T05:45:39;31.00;39.10
7077;DHT22;3579;48.956;9.154;2023-06-26T05:48:06;31.10;38.90
7077;DHT22;3579;48.956;9.154;2023-06-26T05:50:32;31.10;38.70
7077;DHT22;3579;48.956;9.154;2023-06-26T05:53:04;31.10;38.70
7077;DHT22;3579;48.956;9.154;2023-06-26T05:55:31;31.20;38.70
7077;DHT22;3579;48.956;9.154;2023-06-26T05:57:58;31.20;38.80
7077;DHT22;3579;48.956;9.154;2023-06-26T06:00:26;29.70;39.70
7077;DHT22;3579;48.956;9.154;2023-06-26T06:02:52;28.10;43.10
7077;DHT22;3579;48.956;9.154;2023-06-26T06:05:23;28.30;43.30
7077;DHT22;3579;48.956;9.154;2023-06-26T06:07:49;28.00;44.50
7077;DHT22;3579;48.956;9.154;2023-06-26T06:10:16;28.00;45.30
7077;DHT22;3579;48.956;9.154;2023-06-26T06:12:42;27.10;46.30
7077;DHT22;3579;48.956;9.154;2023-06-26T06:15:08;27.90;45.60
7077;DHT22;3579;48.956;9.154;2023-06-26T06:17:34;27.10;46.70
7077;DHT22;3579;48.956;9.154;2023-06-26T06:20:00;26.70;48.50
7077;DHT22;3579;48.956;9.154;2023-06-26T06:22:26;27.00;47.30
7077;DHT22;3579;48.956;9.154;2023-06-26T06:24:52;26.70;48.80
7077;DHT22;3579;48.956;9.154;2023-06-26T06:27:18;26.60;47.90
7077;DHT22;3579;48.956;9.154;2023-06-26T06:29:44;26.60;49.30
7077;DHT22;3579;48.956;9.154;2023-06-26T06:32:10;27.70;46.80
7077;DHT22;3579;48.956;9.154;2023-06-26T06:34:36;27.90;46.40
7077;DHT22;3579;48.956;9.154;2023-06-26T06:37:03;28.20;46.00
7077;DHT22;3579;48.956;9.154;2023-06-26T06:39:29;28.10;45.90
7077;DHT22;3579;48.956;9.154;2023-06-26T06:41:55;28.40;45.70
7077;DHT22;3579;48.956;9.154;2023-06-26T06:44:21;28.40;45.70
7077;DHT22;3579;48.956;9.154;2023-06-26T06:46:48;28.50;45.70
7077;DHT22;3579;48.956;9.154;2023-06-26T06:49:14;28.70;45.30
7077;DHT22;3579;48.956;9.154;2023-06-26T06:51:40;28.70;45.20
7077;DHT22;3579;48.956;9.154;2023-06-26T06:54:06;28.70;45.40
7077;DHT22;3579;48.956;9.154;2023-06-26T06:56:32;28.70;45.40
7077;DHT22;3579;48.956;9.154;2023-06-26T06:58:58;28.70;45.70
7077;DHT22;3579;48.956;9.154;2023-06-26T07:01:24;28.80;45.50
7077;DHT22;3579;48.956;9.154;2023-06-26T07:03:50;28.80;45.30
7077;DHT22;3579;48.956;9.154;2023-06-26T07:06:16;28.70;45.50
7077;DHT22;3579;48.956;9.154;2023-06-26T07:08:43;28.50;45.80
7077;DHT22;3579;48.956;9.154;2023-06-26T07:11:09;28.60;45.40
7077;DHT22;3579;48.956;9.154;2023-06-26T07:13:35;28.70;45.50
7077;DHT22;3579;48.956;9.154;2023-06-26T07:16:02;28.50;45.90
7077;DHT22;3579;48.956;9.154;2023-06-26T07:18:28;28.60;45.80
7077;DHT22;3579;48.956;9.154;2023-06-26T07:20:54;28.10;46.40
7077;DHT22;3579;48.956;9.154;2023-06-26T07:23:20;27.90;47.10
7077;DHT22;3579;48.956;9.154;2023-06-26T07:25:46;28.20;46.60
7077;DHT22;3579;48.956;9.154;2023-06-26T07:28:13;28.30;46.50
7077;DHT22;3579;48.956;9.154;2023-06-26T07:30:39;28.40;46.30
7077;DHT22;3579;48.956;9.154;2023-06-26T07:33:05;28.50;45.90
7077;DHT22;3579;48.956;9.154;2023-06-26T07:35:31;28.30;44.80
7077;DHT22;3579;48.956;9.154;2023-06-26T07:37:57;27.80;44.00
7077;DHT22;3579;48.956;9.154;2023-06-26T07:40:24;27.80;44.00
7077;DHT22;3579;48.956;9.154;2023-06-26T07:42:50;27.80;44.80
7077;DHT22;3579;48.956;9.154;2023-06-26T07:45:16;27.70;44.60
7077;DHT22;3579;48.956;9.154;2023-06-26T07:47:42;27.70;44.40
7077;DHT22;3579;48.956;9.154;2023-06-26T07:50:09;27.60;44.40
7077;DHT22;3579;48.956;9.154;2023-06-26T07:52:35;27.70;44.00
7077;DHT22;3579;48.956;9.154;2023-06-26T07:55:01;27.80;43.90
7077;DHT22;3579;48.956;9.154;2023-06-26T07:57:27;27.90;43.80
7077;DHT22;3579;48.956;9.154;2023-06-26T07:59:53;28.00;43.70
7077;DHT22;3579;48.956;9.154;2023-06-26T08:02:20;28.10;44.00
7077;DHT22;3579;48.956;9.154;2023-06-26T08:04:46;28.20;43.90
7077;DHT22;3579;48.956;9.154;2023-06-26T08:07:12;28.20;43.50
7077;DHT22;3579;48.956;9.154;2023-06-26T08:09:40;28.40;43.50
7077;DHT22;3579;48.956;9.154;2023-06-26T08:12:06;28.40;43.70
7077;DHT22;3579;48.956;9.154;2023-06-26T08:14:32;28.20;43.40
7077;DHT22;3579;48.956;9.154;2023-06-26T08:16:58;27.00;43.00
7077;DHT22;3579;48.956;9.154;2023-06-26T08:19:25;28.40;43.60
7077;DHT22;3579;48.956;9.154;2023-06-26T08:21:51;28.50;43.80
7077;DHT22;3579;48.956;9.154;2023-06-26T08:24:17;28.50;44.00
7077;DHT22;3579;48.956;9.154;2023-06-26T08:26:45;28.60;44.10
7077;DHT22;3579;48.956;9.154;2023-06-26T08:29:12;28.70;44.00
7077;DHT22;3579;48.956;9.154;2023-06-26T08:31:39;28.70;44.00
7077;DHT22;3579;48.956;9.154;2023-06-26T08:34:05;28.80;43.90
7077;DHT22;3579;48.956;9.154;2023-06-26T08:36:32;29.10;43.80
7077;DHT22;3579;48.956;9.154;2023-06-26T08:38:58;29.10;43.70
7077;DHT22;3579;48.956;9.154;2023-06-26T08:41:24;29.20;43.70
7077;DHT22;3579;48.956;9.154;2023-06-26T08:43:51;29.00;43.90
7077;DHT22;3579;48.956;9.154;2023-06-26T08:46:19;29.10;43.80
7077;DHT22;3579;48.956;9.154;2023-06-26T08:48:49;29.20;43.80
7077;DHT22;3579;48.956;9.154;2023-06-26T08:51:17;29.30;43.90
7077;DHT22;3579;48.956;9.154;2023-06-26T08:53:56;29.30;43.80
7077;DHT22;3579;48.956;9.154;2023-06-26T08:56:36;29.40;43.90
7077;DHT22;3579;48.956;9.154;2023-06-26T08:59:04;29.40;43.70
7077;DHT22;3579;48.956;9.154;2023-06-26T09:01:31;29.50;43.40
7077;DHT22;3579;48.956;9.154;2023-06-26T09:03:57;29.70;43.20
7077;DHT22;3579;48.956;9.154;2023-06-26T09:06:25;29.60;43.30
7077;DHT22;3579;48.956;9.154;2023-06-26T09:08:52;29.60;43.40
7077;DHT22;3579;48.956;9.154;2023-06-26T09:11:18;29.60;43.30
7077;DHT22;3579;48.956;9.154;2023-06-26T09:13:45;29.70;43.00
7077;DHT22;3579;48.956;9.154;2023-06-26T09:16:13;29.70;42.90
7077;DHT22;3579;48.956;9.154;2023-06-26T09:18:42;29.70;43.00
7077;DHT22;3579;48.956;9.154;2023-06-26T09:21:09;29.70;42.90
7077;DHT22;3579;48.956;9.154;2023-06-26T09:23:35;29.80;42.80
7077;DHT22;3579;48.956;9.154;2023-06-26T09:26:03;29.80;42.80
7077;DHT22;3579;48.956;9.154;2023-06-26T09:28:30;29.80;42.60
7077;DHT22;3579;48.956;9.154;2023-06-26T09:31:04;29.80;42.60
7077;DHT22;3579;48.956;9.154;2023-06-26T09:33:38;29.80;42.60
7077;DHT22;3579;48.956;9.154;2023-06-26T09:36:19;29.80;42.80
7077;DHT22;3579;48.956;9.154;2023-06-26T09:38:45;30.00;42.60
7077;DHT22;3579;48.956;9.154;2023-06-26T09:41:11;30.10;42.40
7077;DHT22;3579;48.956;9.154;2023-06-26T09:43:50;30.00;42.60
7077;DHT22;3579;48.956;9.154;2023-06-26T09:46:26;29.60;43.10
7077;DHT22;3579;48.956;9.154;2023-06-26T09:49:04;29.70;43.80
7077;DHT22;3579;48.956;9.154;2023-06-26T09:51:35;29.80;43.90
7077;DHT22;3579;48.956;9.154;2023-06-26T09:54:02;30.00;43.60
7077;DHT22;3579;48.956;9.154;2023-06-26T09:56:29;30.10;43.80
7077;DHT22;3579;48.956;9.154;2023-06-26T09:58:57;30.10;43.60
7077;DHT22;3579;48.956;9.154;2023-06-26T10:01:24;29.90;43.60
7077;DHT22;3579;48.956;9.154;2023-06-26T10:03:51;29.70;43.90
7077;DHT22;3579;48.956;9.154;2023-06-26T10:06:27;29.90;44.00
7077;DHT22;3579;48.956;9.154;2023-06-26T10:08:54;29.90;43.70
7077;DHT22;3579;48.956;9.154;2023-06-26T10:11:23;29.90;43.20
7077;DHT22;3579;48.956;9.154;2023-06-26T10:13:53;29.90;43.30
7077;DHT22;3579;48.956;9.154;2023-06-26T10:16:26;29.80;42.70
7077;DHT22;3579;48.956;9.154;2023-06-26T10:18:58;29.80;43.30
7077;DHT22;3579;48.956;9.154;2023-06-26T10:21:26;29.80;43.20
7077;DHT22;3579;48.956;9.154;2023-06-26T10:23:53;30.00;43.30
7077;DHT22;3579;48.956;9.154;2023-06-26T10:26:21;30.10;42.50
7077;DHT22;3579;48.956;9.154;2023-06-26T10:28:49;30.10;42.40
7077;DHT22;3579;48.956;9.154;2023-06-26T10:31:21;29.90;43.50
7077;DHT22;3579;48.956;9.154;2023-06-26T10:33:49;29.90;43.70
7077;DHT22;3579;48.956;9.154;2023-06-26T10:36:18;30.00;43.80
7077;DHT22;3579;48.956;9.154;2023-06-26T10:38:52;30.00;44.00
7077;DHT22;3579;48.956;9.154;2023-06-26T10:41:21;30.10;43.80
7077;DHT22;3579;48.956;9.154;2023-06-26T10:44:08;30.10;44.20
7077;DHT22;3579;48.956;9.154;2023-06-26T10:46:55;30.20;44.30
7077;DHT22;3579;48.956;9.154;2023-06-26T10:49:27;30.40;44.20
7077;DHT22;3579;48.956;9.154;2023-06-26T10:51:53;30.10;44.60
7077;DHT22;3579;48.956;9.154;2023-06-26T10:54:21;30.10;45.40
7077;DHT22;3579;48.956;9.154;2023-06-26T10:56:54;29.80;46.10
7077;DHT22;3579;48.956;9.154;2023-06-26T10:59:32;29.80;46.70
7077;DHT22;3579;48.956;9.154;2023-06-26T11:02:01;29.90;46.30
7077;DHT22;3579;48.956;9.154;2023-06-26T11:04:48;30.10;46.10
7077;DHT22;3579;48.956;9.154;2023-06-26T11:07:25;30.20;45.90
7077;DHT22;3579;48.956;9.154;2023-06-26T11:10:10;30.40;46.00
7077;DHT22;3579;48.956;9.154;2023-06-26T11:12:42;30.20;46.00
7077;DHT22;3579;48.956;9.154;2023-06-26T11:15:14;30.30;46.10
7077;DHT22;3579;48.956;9.154;2023-06-26T11:17:42;30.30;45.80
7077;DHT22;3579;48.956;9.154;2023-06-26T11:20:10;30.50;46.10
7077;DHT22;3579;48.956;9.154;2023-06-26T11:22:40;30.50;46.00
7077;DHT22;3579;48.956;9.154;2023-06-26T11:25:08;30.50;45.90
7077;DHT22;3579;48.956;9.154;2023-06-26T11:27:41;30.40;46.40
7077;DHT22;3579;48.956;9.154;2023-06-26T11:30:22;30.20;46.40
7077;DHT22;3579;48.956;9.154;2023-06-26T11:32:48;30.40;46.80
7077;DHT22;3579;48.956;9.154;2023-06-26T11:35:25;30.50;46.70
7077;DHT22;3579;48.956;9.154;2023-06-26T11:38:00;30.50;46.50
7077;DHT22;3579;48.956;9.154;2023-06-26T11:40:33;30.40;46.40
7077;DHT22;3579;48.956;9.154;2023-06-26T11:43:03;30.30;46.50
7077;DHT22;3579;48.956;9.154;2023-06-26T11:45:31;30.30;46.70
7077;DHT22;3579;48.956;9.154;2023-06-26T11:47:58;30.40;46.90
7077;DHT22;3579;48.956;9.154;2023-06-26T11:50:24;30.30;46.90
7077;DHT22;3579;48.956;9.154;2023-06-26T11:52:55;30.30;47.10
7077;DHT22;3579;48.956;9.154;2023-06-26T11:55:26;30.30;47.10
7077;DHT22;3579;48.956;9.154;2023-06-26T11:57:58;30.40;47.30
7077;DHT22;3579;48.956;9.154;2023-06-26T12:00:27;30.30;47.60
7077;DHT22;3579;48.956;9.154;2023-06-26T12:03:00;30.40;47.50
7077;DHT22;3579;48.956;9.154;2023-06-26T12:05:32;30.40;47.50
7077;DHT22;3579;48.956;9.154;2023-06-26T12:08:10;30.50;47.50
7077;DHT22;3579;48.956;9.154;2023-06-26T12:10:49;30.40;47.60
7077;DHT22;3579;48.956;9.154;2023-06-26T12:13:25;30.40;47.70
7077;DHT22;3579;48.956;9.154;2023-06-26T12:16:00;30.30;48.00
7077;DHT22;3579;48.956;9.154;2023-06-26T12:18:26;30.20;48.10
7077;DHT22;3579;48.956;9.154;2023-06-26T12:20:58;30.30;48.00
7077;DHT22;3579;48.956;9.154;2023-06-26T12:23:40;30.40;48.20
7077;DHT22;3579;48.956;9.154;2023-06-26T12:26:27;30.00;48.60
7077;DHT22;3579;48.956;9.154;2023-06-26T12:29:14;30.20;48.50
7077;DHT22;3579;48.956;9.154;2023-06-26T12:31:42;30.20;48.50
7077;DHT22;3579;48.956;9.154;2023-06-26T12:34:14;30.30;48.50
7077;DHT22;3579;48.956;9.154;2023-06-26T12:36:46;30.30;48.40
7077;DHT22;3579;48.956;9.154;2023-06-26T12:39:20;30.40;48.20
7077;DHT22;3579;48.956;9.154;2023-06-26T12:41:55;30.20;48.10
7077;DHT22;3579;48.956;9.154;2023-06-26T12:44:25;30.10;48.10
7077;DHT22;3579;48.956;9.154;2023-06-26T12:47:02;30.20;48.00
7077;DHT22;3579;48.956;9.154;2023-06-26T12:49:35;30.30;47.70
7077;DHT22;3579;48.956;9.154;2023-06-26T12:52:07;30.40;47.00
7077;DHT22;3579;48.956;9.154;2023-06-26T12:54:34;30.50;47.10
7077;DHT22;3579;48.956;9.154;2023-06-26T12:57:01;30.30;46.70
7077;DHT22;3579;48.956;9.154;2023-06-26T12:59:30;30.40;46.30
7077;DHT22;3579;48.956;9.154;2023-06-26T13:01:57;30.20;46.40
7077;DHT22;3579;48.956;9.154;2023-06-26T13:04:23;30.30;46.70
7077;DHT22;3579;48.956;9.154;2023-06-26T13:06:50;30.30;46.50
7077;DHT22;3579;48.956;9.154;2023-06-26T13:09:17;30.40;46.10
7077;DHT22;3579;48.956;9.154;2023-06-26T13:11:43;30.40;45.40
7077;DHT22;3579;48.956;9.154;2023-06-26T13:14:09;30.50;45.10
7077;DHT22;3579;48.956;9.154;2023-06-26T13:16:36;30.70;44.20
7077;DHT22;3579;48.956;9.154;2023-06-26T13:19:02;30.50;44.30
7077;DHT22;3579;48.956;9.154;2023-06-26T13:21:29;30.20;44.10
7077;DHT22;3579;48.956;9.154;2023-06-26T13:23:55;30.40;44.10
7077;DHT22;3579;48.956;9.154;2023-06-26T13:26:22;30.50;44.10
7077;DHT22;3579;48.956;9.154;2023-06-26T13:28:49;30.50;43.20
7077;DHT22;3579;48.956;9.154;2023-06-26T13:31:15;30.30;43.00
7077;DHT22;3579;48.956;9.154;2023-06-26T13:33:41;30.10;42.90
7077;DHT22;3579;48.956;9.154;2023-06-26T13:36:07;30.20;43.10
7077;DHT22;3579;48.956;9.154;2023-06-26T13:38:34;30.40;42.50
7077;DHT22;3579;48.956;9.154;2023-06-26T13:41:00;30.40;41.90
7077;DHT22;3579;48.956;9.154;2023-06-26T13:43:27;30.30;42.10
7077;DHT22;3579;48.956;9.154;2023-06-26T13:45:54;29.30;41.20
7077;DHT22;3579;48.956;9.154;2023-06-26T13:48:21;30.50;41.60
7077;DHT22;3579;48.956;9.154;2023-06-26T13:50:47;30.40;41.20
7077;DHT22;3579;48.956;9.154;2023-06-26T13:53:13;30.50;41.40
7077;DHT22;3579;48.956;9.154;2023-06-26T13:55:40;30.50;40.70
7077;DHT22;3579;48.956;9.154;2023-06-26T13:58:07;30.20;41.00
7077;DHT22;3579;48.956;9.154;2023-06-26T14:00:34;30.10;41.30
7077;DHT22;3579;48.956;9.154;2023-06-26T14:03:01;30.00;41.10
7077;DHT22;3579;48.956;9.154;2023-06-26T14:05:29;29.80;41.30
7077;DHT22;3579;48.956;9.154;2023-06-26T14:07:56;29.90;41.40
7077;DHT22;3579;48.956;9.154;2023-06-26T14:10:22;29.90;41.50
7077;DHT22;3579;48.956;9.154;2023-06-26T14:12:49;29.80;41.40
7077;DHT22;3579;48.956;9.154;2023-06-26T14:15:15;29.80;41.60
7077;DHT22;3579;48.956;9.154;2023-06-26T14:17:41;30.00;41.50
7077;DHT22;3579;48.956;9.154;2023-06-26T14:20:08;30.10;41.60
7077;DHT22;3579;48.956;9.154;2023-06-26T14:22:40;30.20;41.50
7077;DHT22;3579;48.956;9.154;2023-06-26T14:25:07;30.30;41.40
7077;DHT22;3579;48.956;9.154;2023-06-26T14:27:34;30.10;41.50
7077;DHT22;3579;48.956;9.154;2023-06-26T14:30:01;30.10;41.60
7077;DHT22;3579;48.956;9.154;2023-06-26T14:32:28;30.20;41.50
7077;DHT22;3579;48.956;9.154;2023-06-26T14:34:56;29.90;41.30
7077;DHT22;3579;48.956;9.154;2023-06-26T14:37:22;30.10;41.30
7077;DHT22;3579;48.956;9.154;2023-06-26T14:39:50;30.00;41.10
7077;DHT22;3579;48.956;9.154;2023-06-26T14:42:16;29.90;41.20
7077;DHT22;3579;48.956;9.154;2023-06-26T14:44:42;30.00;41.30
7077;DHT22;3579;48.956;9.154;2023-06-26T14:47:08;30.00;41.60
7077;DHT22;3579;48.956;9.154;2023-06-26T14:49:34;30.20;41.50
7077;DHT22;3579;48.956;9.154;2023-06-26T14:52:01;30.30;41.00
7077;DHT22;3579;48.956;9.154;2023-06-26T14:54:27;30.10;40.60
7077;DHT22;3579;48.956;9.154;2023-06-26T14:56:54;30.20;40.30
7077;DHT22;3579;48.956;9.154;2023-06-26T14:59:20;30.30;40.00
7077;DHT22;3579;48.956;9.154;2023-06-26T15:01:46;30.20;40.60
7077;DHT22;3579;48.956;9.154;2023-06-26T15:04:12;30.30;41.50
7077;DHT22;3579;48.956;9.154;2023-06-26T15:06:38;30.50;41.50
7077;DHT22;3579;48.956;9.154;2023-06-26T15:09:05;30.60;42.00
7077;DHT22;3579;48.956;9.154;2023-06-26T15:11:31;30.60;42.00
7077;DHT22;3579;48.956;9.154;2023-06-26T15:13:57;30.60;42.00
7077;DHT22;3579;48.956;9.154;2023-06-26T15:16:23;30.60;41.90
7077;DHT22;3579;48.956;9.154;2023-06-26T15:18:49;30.60;41.80
7077;DHT22;3579;48.956;9.154;2023-06-26T15:21:15;30.70;41.80
7077;DHT22;3579;48.956;9.154;2023-06-26T15:23:41;30.70;41.70
7077;DHT22;3579;48.956;9.154;2023-06-26T15:26:07;30.70;41.60
7077;DHT22;3579;48.956;9.154;2023-06-26T15:28:33;30.70;41.50
7077;DHT22;3579;48.956;9.154;2023-06-26T15:30:59;30.70;41.50
7077;DHT22;3579;48.956;9.154;2023-06-26T15:33:25;30.80;41.60
7077;DHT22;3579;48.956;9.154;2023-06-26T15:35:51;30.80;41.50
7077;DHT22;3579;48.956;9.154;2023-06-26T15:38:17;30.80;41.50
7077;DHT22;3579;48.956;9.154;2023-06-26T15:40:43;30.80;41.60
7077;DHT22;3579;48.956;9.154;2023-06-26T15:43:09;30.80;41.60
7077;DHT22;3579;48.956;9.154;2023-06-26T15:45:35;30.90;41.70
7077;DHT22;3579;48.956;9.154;2023-06-26T15:48:01;30.90;41.70
7077;DHT22;3579;48.956;9.154;2023-06-26T15:50:27;30.90;41.70
7077;DHT22;3579;48.956;9.154;2023-06-26T15:52:53;30.90;41.70
7077;DHT22;3579;48.956;9.154;2023-06-26T15:55:19;30.90;41.70
7077;DHT22;3579;48.956;9.154;2023-06-26T15:57:45;30.90;41.70
7077;DHT22;3579;48.956;9.154;2023-06-26T16:00:12;31.00;41.80
7077;DHT22;3579;48.956;9.154;2023-06-26T16:02:38;31.00;41.80
7077;DHT22;3579;48.956;9.154;2023-06-26T16:05:05;31.00;41.80
7077;DHT22;3579;48.956;9.154;2023-06-26T16:07:31;31.50;42.10
7077;DHT22;3579;48.956;9.154;2023-06-26T16:09:57;31.00;41.80